Laserfiche WebLink
Name Page count Template name Date created Date modified
2017-07-12 Old Airport in Kona to be closed August 9 and 10 2017 for cleanup -- press release[Icon] 1 7/12/2017 1:16:06 PM 7/12/2017 1:16:07 PM
2017-07-13 Andrews Gym Biddy Basketball League -- press release[Icon] 1 7/13/2017 12:07:24 PM 7/13/2017 12:07:25 PM
2017-07-14 Waimea Fire Fighting Effort -- press release[Icon] 1 7/14/2017 11:45:47 AM 7/14/2017 11:45:47 AM
2017-07-19 Richardsons Roughwater Swim -- press release[Icon] 1 7/19/2017 2:25:19 PM 7/19/2017 2:25:20 PM
2017-07-19 Richardsons Roughwater Swim -- press release ‎(2)‎[Icon] 1 7/19/2017 2:25:49 PM 7/19/2017 2:25:49 PM
2017-07-20 Ohana Shoreline Fishing Tournament -- press release[Icon] 1 7/20/2017 1:14:56 PM 7/20/2017 1:14:57 PM
2017-07-24 Planning Department named Blue Zones worksite -- press release[Icon] 1 7/24/2017 4:00:15 PM 7/24/2017 4:00:16 PM
2017-07-24 Planning Department named Blue Zones worksite -- press release ‎(2)‎[Icon] 1 7/24/2017 4:25:56 PM 7/24/2017 4:25:56 PM
2017-07-24 Planning Department named Blue Zones worksite -- press release ‎(3)‎[Icon] 1 7/24/2017 4:26:43 PM 7/24/2017 4:26:43 PM
2017-07-24 State Farm donates 500 home security systems to Hawaii Fire Department -- press release[Icon] 1 7/24/2017 3:02:26 PM 7/24/2017 3:02:26 PM
2017-07-26 Community Clean-up at Old Airport Park in Kona -- press release[Icon] 1 7/26/2017 3:51:02 PM 7/26/2017 3:51:02 PM
2017-07-31 DIY Used Motor Oil Collection Sites Reopen -- press release[Icon] 1 7/31/2017 4:43:19 PM 7/31/2017 4:43:20 PM
2017-07-31 DIY Used Motor Oil Collection Sites Reopen -- press release ‎(2)‎[Icon] 1 7/31/2017 4:43:49 PM 7/31/2017 4:43:50 PM
2017-08-01 Emergency Proclamation re Kikaha Project[Icon] 2 8/1/2017 3:07:56 PM 8/8/2017 2:08:15 PM
2017-08-02 County helps homeless people move to temporary shelter from Old Airport Park -- press release[Icon] 1 8/2/2017 5:09:22 PM 8/2/2017 5:09:23 PM
2017-08-07 DPW's New Online Inspection Request Form -- press release[Icon] 1 8/7/2017 1:23:00 PM 8/7/2017 1:23:00 PM
2017-08-08 Pahoa Community Meeting re Skate Park -- press release[Icon] 1 8/9/2017 2:12:40 PM 8/9/2017 2:12:41 PM
2017-08-08 Richardson Beach Closure for Tree Maintenance -- press release[Icon] 1 8/9/2017 2:02:37 PM 8/9/2017 2:02:37 PM
2017-08-09 Waiohinu Reuse Center Blessing - Press Release[Icon] 1 8/9/2017 12:43:05 PM 8/9/2017 12:43:05 PM
2017-08-14 Mahalo to Old Kona Airport volunteers and sponsors -- press release[Icon] 1 8/14/2017 3:36:15 PM 8/14/2017 3:36:15 PM
20170814 NKona Emergency Water Restriction -Honokohau down press release-UPDATE 1[Icon] 1 8/14/2017 3:16:23 PM 8/14/2017 3:16:23 PM
2017-08-15 Board of Appeals seeking applicants -- press release ‎(2)‎[Icon] 1 8/15/2017 2:19:33 PM 8/15/2017 2:19:34 PM
2017-08-15 NKona Emergency Water Restriction -Honokohau Well down press release-UPDATE 2[Icon] 1 8/15/2017 4:04:12 PM 8/15/2017 4:04:12 PM
2017-08-15 Residents Urged To Dispose of Tires Properly[Icon] 1 8/15/2017 2:26:43 PM 8/15/2017 2:26:43 PM
20170816 NKonaEmgyWtrRstrctn -Honokohau down press release-UPDATE 3[Icon] 1 8/16/2017 4:07:01 PM 8/16/2017 4:07:02 PM
Page 4 of 8
1
2
3
4
5
6
7
8
Last
193 Entries
Document management portal powered by Laserfiche WebLink 9 © 1998-2015 Laserfiche. All rights reserved.